Terminal Aerodrome Forecast
Issued by NWS Corpus Christi, TX

Home | Current Version | Previous Version | Text Only | Print | Product List | Glossary On
Versions: 1 2 3 4 5 6 7 8 9 10 11 12 13 14 15 16 17
000
FTUS44 KCRP 232333
TAFCRP
TAF
KCRP 232333Z 2400/2424 15019G26KT P6SM FEW020 SCT050
     FM240200 15015KT P6SM SKC
     FM240700 16010KT P6SM FEW010
     FM241000 18006KT 2SM BR SCT007
      TEMPO 2410/2414 3/4SM BR BKN004
     FM241500 30009KT P6SM SCT012
     FM241800 35014G20KT P6SM SKC=

USA.gov is the U.S. government's official web portal to all federal, state and local government web resources and services.